sensor_id;sensor_type;location;lat;lon;timestamp;pressure;altitude;pressure_sealevel;temperature;humidity
57600;BME280;43426;43.594;24.334;2024-02-26T00:01:00;100707.50;;;6.10;100.00
57600;BME280;43426;43.594;24.334;2024-02-26T00:03:27;100708.06;;;6.04;100.00
57600;BME280;43426;43.594;24.334;2024-02-26T00:05:52;100705.53;;;6.03;100.00
57600;BME280;43426;43.594;24.334;2024-02-26T00:08:17;100704.56;;;6.13;100.00
57600;BME280;43426;43.594;24.334;2024-02-26T00:10:42;100704.41;;;6.15;100.00
57600;BME280;43426;43.594;24.334;2024-02-26T00:13:08;100699.88;;;6.16;100.00
57600;BME280;43426;43.594;24.334;2024-02-26T00:15:33;100695.66;;;6.13;100.00
57600;BME280;43426;43.594;24.334;2024-02-26T00:18:00;100692.00;;;6.14;100.00
57600;BME280;43426;43.594;24.334;2024-02-26T00:20:25;100700.59;;;6.18;100.00
57600;BME280;43426;43.594;24.334;2024-02-26T00:22:51;100700.59;;;6.18;100.00
57600;BME280;43426;43.594;24.334;2024-02-26T00:25:17;100696.09;;;6.08;100.00
57600;BME280;43426;43.594;24.334;2024-02-26T00:27:42;100695.50;;;6.05;100.00
57600;BME280;43426;43.594;24.334;2024-02-26T00:30:09;100692.97;;;6.03;100.00
57600;BME280;43426;43.594;24.334;2024-02-26T00:32:34;100688.19;;;6.07;100.00
57600;BME280;43426;43.594;24.334;2024-02-26T00:35:00;100676.75;;;6.14;100.00
57600;BME280;43426;43.594;24.334;2024-02-26T00:37:25;100680.84;;;6.19;100.00
57600;BME280;43426;43.594;24.334;2024-02-26T00:39:50;100675.91;;;6.14;100.00
57600;BME280;43426;43.594;24.334;2024-02-26T00:42:18;100672.94;;;6.17;100.00
57600;BME280;43426;43.594;24.334;2024-02-26T00:44:43;100670.97;;;6.19;100.00
57600;BME280;43426;43.594;24.334;2024-02-26T00:47:08;100670.00;;;6.10;100.00
57600;BME280;43426;43.594;24.334;2024-02-26T00:49:34;100675.66;;;5.97;100.00
57600;BME280;43426;43.594;24.334;2024-02-26T00:51:59;100661.53;;;5.66;100.00
57600;BME280;43426;43.594;24.334;2024-02-26T00:54:24;100663.81;;;5.51;100.00
57600;BME280;43426;43.594;24.334;2024-02-26T00:56:50;100654.53;;;5.45;100.00
57600;BME280;43426;43.594;24.334;2024-02-26T00:59:15;100660.41;;;5.39;100.00
57600;BME280;43426;43.594;24.334;2024-02-26T01:01:40;100657.72;;;5.29;100.00
57600;BME280;43426;43.594;24.334;2024-02-26T01:04:06;100658.72;;;5.28;100.00
57600;BME280;43426;43.594;24.334;2024-02-26T01:06:31;100662.22;;;5.19;100.00
57600;BME280;43426;43.594;24.334;2024-02-26T01:08:56;100667.16;;;5.14;100.00
57600;BME280;43426;43.594;24.334;2024-02-26T01:11:22;100672.19;;;5.07;100.00
57600;BME280;43426;43.594;24.334;2024-02-26T01:13:47;100662.31;;;5.08;100.00
57600;BME280;43426;43.594;24.334;2024-02-26T01:16:12;100657.13;;;5.06;100.00
57600;BME280;43426;43.594;24.334;2024-02-26T01:18:38;100663.59;;;5.04;100.00
57600;BME280;43426;43.594;24.334;2024-02-26T01:21:03;100661.66;;;5.16;100.00
57600;BME280;43426;43.594;24.334;2024-02-26T01:23:31;100670.66;;;5.15;100.00
57600;BME280;43426;43.594;24.334;2024-02-26T01:25:57;100662.78;;;5.13;100.00
57600;BME280;43426;43.594;24.334;2024-02-26T01:28:22;100661.50;;;5.07;100.00
57600;BME280;43426;43.594;24.334;2024-02-26T01:30:47;100661.19;;;5.01;100.00
57600;BME280;43426;43.594;24.334;2024-02-26T01:33:13;100658.22;;;5.04;100.00
57600;BME280;43426;43.594;24.334;2024-02-26T01:35:38;100657.97;;;5.07;100.00
57600;BME280;43426;43.594;24.334;2024-02-26T01:38:04;100658.81;;;5.07;100.00
57600;BME280;43426;43.594;24.334;2024-02-26T01:40:29;100657.25;;;5.05;100.00
57600;BME280;43426;43.594;24.334;2024-02-26T01:42:55;100653.91;;;5.13;100.00
57600;BME280;43426;43.594;24.334;2024-02-26T01:45:20;100656.31;;;5.16;100.00
57600;BME280;43426;43.594;24.334;2024-02-26T01:47:52;100656.44;;;5.14;100.00
57600;BME280;43426;43.594;24.334;2024-02-26T01:50:17;100658.69;;;5.09;100.00
57600;BME280;43426;43.594;24.334;2024-02-26T01:52:43;100656.97;;;5.08;100.00
57600;BME280;43426;43.594;24.334;2024-02-26T01:55:09;100649.81;;;5.08;100.00
57600;BME280;43426;43.594;24.334;2024-02-26T01:57:34;100654.44;;;5.06;100.00
57600;BME280;43426;43.594;24.334;2024-02-26T02:00:00;100659.78;;;5.06;100.00
57600;BME280;43426;43.594;24.334;2024-02-26T02:02:25;100645.16;;;5.10;100.00
57600;BME280;43426;43.594;24.334;2024-02-26T02:04:51;100646.44;;;5.16;100.00
57600;BME280;43426;43.594;24.334;2024-02-26T02:07:17;100649.97;;;5.17;100.00
57600;BME280;43426;43.594;24.334;2024-02-26T02:09:43;100654.63;;;5.24;100.00
57600;BME280;43426;43.594;24.334;2024-02-26T02:12:08;100657.28;;;5.15;100.00
57600;BME280;43426;43.594;24.334;2024-02-26T02:14:34;100659.78;;;4.97;100.00
57600;BME280;43426;43.594;24.334;2024-02-26T02:17:00;100657.66;;;4.90;100.00
57600;BME280;43426;43.594;24.334;2024-02-26T02:19:25;100650.47;;;4.91;100.00
57600;BME280;43426;43.594;24.334;2024-02-26T02:21:50;100653.28;;;4.89;100.00
57600;BME280;43426;43.594;24.334;2024-02-26T02:24:16;100655.16;;;4.99;100.00
57600;BME280;43426;43.594;24.334;2024-02-26T02:26:41;100653.03;;;5.02;100.00
57600;BME280;43426;43.594;24.334;2024-02-26T02:29:06;100654.72;;;5.03;100.00
57600;BME280;43426;43.594;24.334;2024-02-26T02:31:32;100652.47;;;4.99;100.00
57600;BME280;43426;43.594;24.334;2024-02-26T02:33:58;100647.13;;;4.99;100.00
57600;BME280;43426;43.594;24.334;2024-02-26T02:36:23;100659.38;;;5.01;100.00
57600;BME280;43426;43.594;24.334;2024-02-26T02:38:49;100659.09;;;5.04;100.00
57600;BME280;43426;43.594;24.334;2024-02-26T02:41:18;100657.25;;;5.05;100.00
57600;BME280;43426;43.594;24.334;2024-02-26T02:43:43;100659.13;;;5.14;100.00
57600;BME280;43426;43.594;24.334;2024-02-26T02:46:09;100656.03;;;5.19;100.00
57600;BME280;43426;43.594;24.334;2024-02-26T02:48:36;100653.19;;;5.20;100.00
57600;BME280;43426;43.594;24.334;2024-02-26T02:51:01;100657.88;;;5.28;100.00
57600;BME280;43426;43.594;24.334;2024-02-26T02:53:26;100667.44;;;5.31;100.00
57600;BME280;43426;43.594;24.334;2024-02-26T02:55:52;100665.31;;;5.24;100.00
57600;BME280;43426;43.594;24.334;2024-02-26T02:58:17;100677.41;;;5.19;100.00
57600;BME280;43426;43.594;24.334;2024-02-26T03:00:42;100676.50;;;4.89;100.00
57600;BME280;43426;43.594;24.334;2024-02-26T03:03:08;100669.97;;;4.72;100.00
57600;BME280;43426;43.594;24.334;2024-02-26T03:05:33;100666.22;;;4.53;100.00
57600;BME280;43426;43.594;24.334;2024-02-26T03:07:58;100678.16;;;4.49;100.00
57600;BME280;43426;43.594;24.334;2024-02-26T03:10:24;100676.19;;;4.51;100.00
57600;BME280;43426;43.594;24.334;2024-02-26T03:12:50;100672.97;;;4.48;100.00
57600;BME280;43426;43.594;24.334;2024-02-26T03:15:15;100679.31;;;4.56;100.00
57600;BME280;43426;43.594;24.334;2024-02-26T03:17:41;100676.78;;;4.55;100.00
57600;BME280;43426;43.594;24.334;2024-02-26T03:20:06;100672.00;;;4.49;100.00
57600;BME280;43426;43.594;24.334;2024-02-26T03:22:33;100681.28;;;4.54;100.00
57600;BME280;43426;43.594;24.334;2024-02-26T03:24:58;100683.56;;;4.59;100.00
57600;BME280;43426;43.594;24.334;2024-02-26T03:27:24;100684.69;;;4.66;100.00
57600;BME280;43426;43.594;24.334;2024-02-26T03:29:49;100686.13;;;4.70;100.00
57600;BME280;43426;43.594;24.334;2024-02-26T03:32:14;100678.84;;;4.72;100.00
57600;BME280;43426;43.594;24.334;2024-02-26T03:34:40;100682.75;;;4.68;100.00
57600;BME280;43426;43.594;24.334;2024-02-26T03:37:05;100681.75;;;4.69;100.00
57600;BME280;43426;43.594;24.334;2024-02-26T03:39:31;100688.81;;;4.70;100.00
57600;BME280;43426;43.594;24.334;2024-02-26T03:41:56;100689.66;;;4.71;100.00
57600;BME280;43426;43.594;24.334;2024-02-26T03:44:22;100688.25;;;4.67;100.00
57600;BME280;43426;43.594;24.334;2024-02-26T03:46:47;100686.13;;;4.70;100.00
57600;BME280;43426;43.594;24.334;2024-02-26T03:49:12;100691.44;;;4.60;100.00
57600;BME280;43426;43.594;24.334;2024-02-26T03:51:38;100685.78;;;4.54;100.00
57600;BME280;43426;43.594;24.334;2024-02-26T03:54:04;100687.97;;;4.39;100.00
57600;BME280;43426;43.594;24.334;2024-02-26T03:56:29;100686.97;;;4.40;100.00
57600;BME280;43426;43.594;24.334;2024-02-26T03:58:54;100687.25;;;4.37;100.00
57600;BME280;43426;43.594;24.334;2024-02-26T04:01:20;100686.06;;;4.30;100.00
57600;BME280;43426;43.594;24.334;2024-02-26T04:03:45;100684.09;;;4.32;100.00
57600;BME280;43426;43.594;24.334;2024-02-26T04:06:11;100688.16;;;4.26;100.00
57600;BME280;43426;43.594;24.334;2024-02-26T04:08:36;100698.66;;;4.39;100.00
57600;BME280;43426;43.594;24.334;2024-02-26T04:11:03;100701.13;;;4.31;100.00
57600;BME280;43426;43.594;24.334;2024-02-26T04:13:32;100690.56;;;4.29;100.00
57600;BME280;43426;43.594;24.334;2024-02-26T04:15:57;100682.81;;;4.26;100.00
57600;BME280;43426;43.594;24.334;2024-02-26T04:18:23;100672.66;;;4.20;100.00
57600;BME280;43426;43.594;24.334;2024-02-26T04:20:48;100673.78;;;4.17;100.00
57600;BME280;43426;43.594;24.334;2024-02-26T04:23:13;100686.28;;;4.17;100.00
57600;BME280;43426;43.594;24.334;2024-02-26T04:25:39;100682.75;;;4.16;100.00
57600;BME280;43426;43.594;24.334;2024-02-26T04:28:04;100678.47;;;4.04;100.00
57600;BME280;43426;43.594;24.334;2024-02-26T04:30:29;100678.91;;;4.09;100.00
57600;BME280;43426;43.594;24.334;2024-02-26T04:32:55;100668.84;;;4.13;100.00
57600;BME280;43426;43.594;24.334;2024-02-26T04:35:20;100661.41;;;4.16;100.00
57600;BME280;43426;43.594;24.334;2024-02-26T04:37:45;100658.44;;;4.19;100.00
57600;BME280;43426;43.594;24.334;2024-02-26T04:40:11;100669.00;;;4.21;100.00
57600;BME280;43426;43.594;24.334;2024-02-26T04:42:36;100679.03;;;4.29;100.00
57600;BME280;43426;43.594;24.334;2024-02-26T04:45:02;100683.13;;;4.33;100.00
57600;BME280;43426;43.594;24.334;2024-02-26T04:47:27;100683.09;;;4.23;100.00
57600;BME280;43426;43.594;24.334;2024-02-26T04:49:52;100681.25;;;4.23;100.00
57600;BME280;43426;43.594;24.334;2024-02-26T04:52:18;100679.81;;;4.19;100.00
57600;BME280;43426;43.594;24.334;2024-02-26T04:54:43;100679.94;;;4.18;100.00
57600;BME280;43426;43.594;24.334;2024-02-26T04:57:09;100680.81;;;4.18;100.00
57600;BME280;43426;43.594;24.334;2024-02-26T04:59:34;100691.31;;;4.10;100.00
57600;BME280;43426;43.594;24.334;2024-02-26T05:01:59;100698.06;;;4.14;100.00
57600;BME280;43426;43.594;24.334;2024-02-26T05:04:25;100699.31;;;4.10;100.00
57600;BME280;43426;43.594;24.334;2024-02-26T05:06:50;100702.13;;;4.08;100.00
57600;BME280;43426;43.594;24.334;2024-02-26T05:09:15;100691.72;;;4.15;100.00
57600;BME280;43426;43.594;24.334;2024-02-26T05:11:41;100695.13;;;4.17;100.00
57600;BME280;43426;43.594;24.334;2024-02-26T05:14:07;100691.22;;;4.21;100.00
57600;BME280;43426;43.594;24.334;2024-02-26T05:16:32;100701.66;;;4.24;100.00
57600;BME280;43426;43.594;24.334;2024-02-26T05:18:58;100703.41;;;4.35;100.00
57600;BME280;43426;43.594;24.334;2024-02-26T05:21:23;100703.41;;;4.35;100.00
57600;BME280;43426;43.594;24.334;2024-02-26T05:23:48;100700.91;;;4.43;100.00
57600;BME280;43426;43.594;24.334;2024-02-26T05:26:20;100713.34;;;4.54;100.00
57600;BME280;43426;43.594;24.334;2024-02-26T05:28:46;100715.47;;;4.60;100.00
57600;BME280;43426;43.594;24.334;2024-02-26T05:31:15;100719.44;;;4.66;100.00
57600;BME280;43426;43.594;24.334;2024-02-26T05:33:40;100715.97;;;4.75;100.00
57600;BME280;43426;43.594;24.334;2024-02-26T05:36:06;100698.09;;;4.76;100.00
57600;BME280;43426;43.594;24.334;2024-02-26T05:38:31;100705.16;;;4.77;100.00
57600;BME280;43426;43.594;24.334;2024-02-26T05:40:57;100718.97;;;4.82;100.00
57600;BME280;43426;43.594;24.334;2024-02-26T05:43:23;100727.78;;;4.73;100.00
57600;BME280;43426;43.594;24.334;2024-02-26T05:45:49;100733.34;;;4.60;100.00
57600;BME280;43426;43.594;24.334;2024-02-26T05:48:14;100724.38;;;4.61;100.00
57600;BME280;43426;43.594;24.334;2024-02-26T05:50:39;100728.56;;;4.64;100.00
57600;BME280;43426;43.594;24.334;2024-02-26T05:53:05;100726.69;;;4.75;100.00
57600;BME280;43426;43.594;24.334;2024-02-26T05:55:30;100733.44;;;4.80;100.00
57600;BME280;43426;43.594;24.334;2024-02-26T05:57:55;100738.09;;;4.87;100.00
57600;BME280;43426;43.594;24.334;2024-02-26T06:00:21;100737.13;;;4.88;100.00
57600;BME280;43426;43.594;24.334;2024-02-26T06:02:46;100737.75;;;5.02;100.00
57600;BME280;43426;43.594;24.334;2024-02-26T06:05:11;100749.16;;;5.04;100.00
57600;BME280;43426;43.594;24.334;2024-02-26T06:07:37;100758.91;;;5.15;100.00
57600;BME280;43426;43.594;24.334;2024-02-26T06:10:02;100758.78;;;5.16;100.00
57600;BME280;43426;43.594;24.334;2024-02-26T06:12:29;100768.66;;;5.25;100.00
57600;BME280;43426;43.594;24.334;2024-02-26T06:14:56;100767.13;;;5.33;100.00
57600;BME280;43426;43.594;24.334;2024-02-26T06:17:22;100762.81;;;5.41;100.00
57600;BME280;43426;43.594;24.334;2024-02-26T06:19:48;100770.13;;;5.49;100.00
57600;BME280;43426;43.594;24.334;2024-02-26T06:22:13;100753.13;;;5.50;100.00
57600;BME280;43426;43.594;24.334;2024-02-26T06:24:38;100750.88;;;5.65;100.00
57600;BME280;43426;43.594;24.334;2024-02-26T06:27:04;100763.03;;;5.79;100.00
57600;BME280;43426;43.594;24.334;2024-02-26T06:29:29;100766.97;;;5.94;100.00
57600;BME280;43426;43.594;24.334;2024-02-26T06:31:55;100760.09;;;6.02;100.00
57600;BME280;43426;43.594;24.334;2024-02-26T06:34:20;100763.88;;;6.09;100.00
57600;BME280;43426;43.594;24.334;2024-02-26T06:36:46;100770.94;;;6.20;100.00
57600;BME280;43426;43.594;24.334;2024-02-26T06:39:11;100766.69;;;6.27;100.00
57600;BME280;43426;43.594;24.334;2024-02-26T06:41:37;100769.09;;;6.40;100.00
57600;BME280;43426;43.594;24.334;2024-02-26T06:44:04;100776.00;;;6.42;100.00
57600;BME280;43426;43.594;24.334;2024-02-26T06:46:29;100766.56;;;6.48;100.00
57600;BME280;43426;43.594;24.334;2024-02-26T06:48:55;100772.44;;;6.61;100.00
57600;BME280;43426;43.594;24.334;2024-02-26T06:51:21;100784.25;;;6.69;100.00
57600;BME280;43426;43.594;24.334;2024-02-26T06:53:46;100776.22;;;6.69;100.00
57600;BME280;43426;43.594;24.334;2024-02-26T06:56:12;100774.66;;;6.86;100.00
57600;BME280;43426;43.594;24.334;2024-02-26T06:58:37;100768.38;;;6.95;100.00
57600;BME280;43426;43.594;24.334;2024-02-26T07:01:02;100772.41;;;7.09;100.00
57600;BME280;43426;43.594;24.334;2024-02-26T07:03:28;100781.28;;;7.19;100.00
57600;BME280;43426;43.594;24.334;2024-02-26T07:05:54;100792.28;;;7.26;100.00
57600;BME280;43426;43.594;24.334;2024-02-26T07:08:19;100787.28;;;7.31;100.00
57600;BME280;43426;43.594;24.334;2024-02-26T07:10:45;100787.03;;;7.34;100.00
57600;BME280;43426;43.594;24.334;2024-02-26T07:13:11;100787.50;;;7.47;100.00
57600;BME280;43426;43.594;24.334;2024-02-26T07:15:36;100793.13;;;7.54;100.00
57600;BME280;43426;43.594;24.334;2024-02-26T07:18:01;100799.28;;;7.64;100.00
57600;BME280;43426;43.594;24.334;2024-02-26T07:20:30;100798.94;;;7.77;100.00
57600;BME280;43426;43.594;24.334;2024-02-26T07:22:55;100803.09;;;7.90;100.00
57600;BME280;43426;43.594;24.334;2024-02-26T07:25:21;100801.00;;;8.01;100.00
57600;BME280;43426;43.594;24.334;2024-02-26T07:27:46;100799.25;;;8.10;100.00
57600;BME280;43426;43.594;24.334;2024-02-26T07:30:12;100791.78;;;8.22;100.00
57600;BME280;43426;43.594;24.334;2024-02-26T07:32:37;100788.81;;;8.25;100.00
57600;BME280;43426;43.594;24.334;2024-02-26T07:35:03;100786.56;;;8.39;100.00
57600;BME280;43426;43.594;24.334;2024-02-26T07:37:28;100797.00;;;8.42;100.00
57600;BME280;43426;43.594;24.334;2024-02-26T07:39:53;100805.16;;;8.50;100.00
57600;BME280;43426;43.594;24.334;2024-02-26T07:42:19;100791.50;;;8.61;100.00
57600;BME280;43426;43.594;24.334;2024-02-26T07:44:45;100788.16;;;8.67;100.00
57600;BME280;43426;43.594;24.334;2024-02-26T07:47:10;100782.00;;;8.75;100.00
57600;BME280;43426;43.594;24.334;2024-02-26T07:49:35;100786.00;;;8.97;100.00
57600;BME280;43426;43.594;24.334;2024-02-26T07:52:01;100796.13;;;9.03;100.00
57600;BME280;43426;43.594;24.334;2024-02-26T07:54:26;100796.50;;;9.09;100.00
57600;BME280;43426;43.594;24.334;2024-02-26T07:56:51;100798.41;;;9.25;100.00
57600;BME280;43426;43.594;24.334;2024-02-26T07:59:17;100799.63;;;9.38;100.00
57600;BME280;43426;43.594;24.334;2024-02-26T08:01:42;100801.38;;;9.48;100.00
57600;BME280;43426;43.594;24.334;2024-02-26T08:04:08;100798.41;;;9.67;100.00
57600;BME280;43426;43.594;24.334;2024-02-26T08:06:33;100803.84;;;9.84;100.00
57600;BME280;43426;43.594;24.334;2024-02-26T08:08:59;100810.22;;;9.83;100.00
57600;BME280;43426;43.594;24.334;2024-02-26T08:11:24;100807.91;;;9.96;100.00
57600;BME280;43426;43.594;24.334;2024-02-26T08:13:49;100805.91;;;9.98;100.00
57600;BME280;43426;43.594;24.334;2024-02-26T08:16:14;100799.50;;;10.08;100.00
57600;BME280;43426;43.594;24.334;2024-02-26T08:18:40;100793.78;;;10.19;100.00
57600;BME280;43426;43.594;24.334;2024-02-26T08:21:05;100809.31;;;10.33;100.00
57600;BME280;43426;43.594;24.334;2024-02-26T08:23:31;100809.34;;;10.42;100.00
57600;BME280;43426;43.594;24.334;2024-02-26T08:25:56;100807.47;;;10.59;100.00
57600;BME280;43426;43.594;24.334;2024-02-26T08:28:22;100809.50;;;10.73;100.00
57600;BME280;43426;43.594;24.334;2024-02-26T08:30:47;100810.81;;;10.94;100.00
57600;BME280;43426;43.594;24.334;2024-02-26T08:33:12;100819.22;;;11.07;100.00
57600;BME280;43426;43.594;24.334;2024-02-26T08:35:38;100819.84;;;11.25;100.00
57600;BME280;43426;43.594;24.334;2024-02-26T08:38:04;100807.59;;;11.46;100.00
57600;BME280;43426;43.594;24.334;2024-02-26T08:40:29;100803.97;;;11.70;100.00
57600;BME280;43426;43.594;24.334;2024-02-26T08:42:54;100807.38;;;11.56;100.00
57600;BME280;43426;43.594;24.334;2024-02-26T08:45:20;100808.72;;;11.60;100.00
57600;BME280;43426;43.594;24.334;2024-02-26T08:47:46;100822.47;;;11.82;100.00
57600;BME280;43426;43.594;24.334;2024-02-26T08:50:11;100820.09;;;11.95;100.00
57600;BME280;43426;43.594;24.334;2024-02-26T08:52:37;100818.66;;;12.07;100.00
57600;BME280;43426;43.594;24.334;2024-02-26T08:55:03;100813.41;;;12.29;100.00
57600;BME280;43426;43.594;24.334;2024-02-26T08:57:29;100804.72;;;12.42;100.00
57600;BME280;43426;43.594;24.334;2024-02-26T08:59:56;100817.03;;;12.83;99.76
57600;BME280;43426;43.594;24.334;2024-02-26T09:02:22;100824.91;;;13.07;98.22
57600;BME280;43426;43.594;24.334;2024-02-26T09:04:47;100823.59;;;13.33;96.57
57600;BME280;43426;43.594;24.334;2024-02-26T09:07:12;100819.88;;;13.04;95.58
57600;BME280;43426;43.594;24.334;2024-02-26T09:09:38;100822.16;;;12.77;96.39
57600;BME280;43426;43.594;24.334;2024-02-26T09:12:03;100817.28;;;12.73;97.37
57600;BME280;43426;43.594;24.334;2024-02-26T09:14:29;100811.19;;;12.71;98.39
57600;BME280;43426;43.594;24.334;2024-02-26T09:16:54;100800.97;;;12.43;99.48
57600;BME280;43426;43.594;24.334;2024-02-26T09:19:19;100798.69;;;12.32;100.00
57600;BME280;43426;43.594;24.334;2024-02-26T09:21:45;100793.41;;;12.38;99.86
57600;BME280;43426;43.594;24.334;2024-02-26T09:24:10;100800.25;;;12.26;100.00
57600;BME280;43426;43.594;24.334;2024-02-26T09:26:36;100804.16;;;12.47;100.00
57600;BME280;43426;43.594;24.334;2024-02-26T09:29:01;100796.09;;;12.76;98.51
57600;BME280;43426;43.594;24.334;2024-02-26T09:31:27;100801.59;;;12.68;96.65
57600;BME280;43426;43.594;24.334;2024-02-26T09:33:52;100803.63;;;12.66;97.05
57600;BME280;43426;43.594;24.334;2024-02-26T09:36:17;100805.34;;;12.67;98.21
57600;BME280;43426;43.594;24.334;2024-02-26T09:38:43;100804.81;;;13.02;95.44
57600;BME280;43426;43.594;24.334;2024-02-26T09:41:11;100807.63;;;13.08;96.92
57600;BME280;43426;43.594;24.334;2024-02-26T09:43:39;100808.56;;;13.01;93.82
57600;BME280;43426;43.594;24.334;2024-02-26T09:46:07;100809.41;;;13.16;95.70
57600;BME280;43426;43.594;24.334;2024-02-26T09:48:33;100802.69;;;13.57;94.79
57600;BME280;43426;43.594;24.334;2024-02-26T09:51:00;100796.78;;;13.90;92.14
57600;BME280;43426;43.594;24.334;2024-02-26T09:53:27;100789.28;;;14.07;90.31
57600;BME280;43426;43.594;24.334;2024-02-26T09:55:54;100788.88;;;14.31;89.41
57600;BME280;43426;43.594;24.334;2024-02-26T09:58:19;100782.88;;;14.36;88.55
57600;BME280;43426;43.594;24.334;2024-02-26T10:00:46;100785.94;;;14.55;88.64
57600;BME280;43426;43.594;24.334;2024-02-26T10:03:17;100780.72;;;14.75;86.59
57600;BME280;43426;43.594;24.334;2024-02-26T10:05:46;100778.16;;;14.67;85.50
57600;BME280;43426;43.594;24.334;2024-02-26T10:08:12;100776.97;;;14.82;85.28
57600;BME280;43426;43.594;24.334;2024-02-26T10:10:37;100777.34;;;15.01;84.67
57600;BME280;43426;43.594;24.334;2024-02-26T10:13:03;100773.59;;;15.09;82.55
57600;BME280;43426;43.594;24.334;2024-02-26T10:15:35;100774.78;;;14.93;83.29
57600;BME280;43426;43.594;24.334;2024-02-26T10:18:03;100775.19;;;14.96;84.27
57600;BME280;43426;43.594;24.334;2024-02-26T10:20:28;100766.84;;;14.98;82.61
57600;BME280;43426;43.594;24.334;2024-02-26T10:22:54;100763.53;;;15.03;83.57
57600;BME280;43426;43.594;24.334;2024-02-26T10:25:19;100765.69;;;15.14;80.99
57600;BME280;43426;43.594;24.334;2024-02-26T10:27:45;100768.94;;;14.96;81.99
57600;BME280;43426;43.594;24.334;2024-02-26T10:30:20;100765.75;;;14.86;81.89
57600;BME280;43426;43.594;24.334;2024-02-26T10:32:46;100765.13;;;14.90;81.85
57600;BME280;43426;43.594;24.334;2024-02-26T10:35:15;100756.38;;;14.95;81.60
57600;BME280;43426;43.594;24.334;2024-02-26T10:37:40;100753.44;;;14.90;81.80
57600;BME280;43426;43.594;24.334;2024-02-26T10:40:09;100751.88;;;15.09;81.39
57600;BME280;43426;43.594;24.334;2024-02-26T10:42:34;100749.81;;;14.82;80.71
57600;BME280;43426;43.594;24.334;2024-02-26T10:45:00;100750.25;;;14.58;83.03
57600;BME280;43426;43.594;24.334;2024-02-26T10:47:27;100755.06;;;14.84;82.38
57600;BME280;43426;43.594;24.334;2024-02-26T10:49:53;100736.81;;;14.71;82.00
57600;BME280;43426;43.594;24.334;2024-02-26T10:52:18;100744.94;;;14.43;82.92
57600;BME280;43426;43.594;24.334;2024-02-26T10:54:44;100744.47;;;14.18;84.76
57600;BME280;43426;43.594;24.334;2024-02-26T10:57:12;100739.66;;;14.13;85.56
57600;BME280;43426;43.594;24.334;2024-02-26T10:59:38;100741.28;;;14.36;86.30
57600;BME280;43426;43.594;24.334;2024-02-26T11:02:04;100731.03;;;14.09;84.64
57600;BME280;43426;43.594;24.334;2024-02-26T11:04:31;100724.91;;;14.22;86.09
57600;BME280;43426;43.594;24.334;2024-02-26T11:06:59;100722.13;;;14.37;86.03
57600;BME280;43426;43.594;24.334;2024-02-26T11:09:26;100724.88;;;14.44;84.20
57600;BME280;43426;43.594;24.334;2024-02-26T11:11:52;100722.25;;;14.57;83.95
57600;BME280;43426;43.594;24.334;2024-02-26T11:14:20;100717.28;;;14.61;83.83
57600;BME280;43426;43.594;24.334;2024-02-26T11:16:45;100725.25;;;14.62;82.95
57600;BME280;43426;43.594;24.334;2024-02-26T11:19:12;100716.28;;;14.40;83.43
57600;BME280;43426;43.594;24.334;2024-02-26T11:21:39;100708.41;;;14.45;83.67
57600;BME280;43426;43.594;24.334;2024-02-26T11:24:07;100715.28;;;14.20;83.90
57600;BME280;43426;43.594;24.334;2024-02-26T11:26:33;100707.53;;;14.17;84.46
57600;BME280;43426;43.594;24.334;2024-02-26T11:29:00;100719.03;;;14.19;84.06
57600;BME280;43426;43.594;24.334;2024-02-26T11:31:26;100717.41;;;14.24;84.51
57600;BME280;43426;43.594;24.334;2024-02-26T11:33:53;100712.56;;;14.41;82.77
57600;BME280;43426;43.594;24.334;2024-02-26T11:36:19;100714.41;;;14.62;82.44
57600;BME280;43426;43.594;24.334;2024-02-26T11:38:46;100702.91;;;14.95;82.92
57600;BME280;43426;43.594;24.334;2024-02-26T11:41:14;100707.75;;;15.62;81.80
57600;BME280;43426;43.594;24.334;2024-02-26T11:46:27;100705.13;;;16.22;75.52
57600;BME280;43426;43.594;24.334;2024-02-26T11:48:58;100712.69;;;16.13;74.50
57600;BME280;43426;43.594;24.334;2024-02-26T11:51:27;100711.63;;;16.14;75.26
57600;BME280;43426;43.594;24.334;2024-02-26T11:53:53;100705.53;;;15.86;75.53
57600;BME280;43426;43.594;24.334;2024-02-26T11:56:20;100704.81;;;15.63;75.51
57600;BME280;43426;43.594;24.334;2024-02-26T11:58:52;100699.56;;;15.48;77.23
57600;BME280;43426;43.594;24.334;2024-02-26T12:04:04;100702.81;;;15.24;78.42
57600;BME280;43426;43.594;24.334;2024-02-26T12:06:29;100690.94;;;15.31;77.72
57600;BME280;43426;43.594;24.334;2024-02-26T12:08:55;100691.03;;;15.65;77.44
57600;BME280;43426;43.594;24.334;2024-02-26T12:11:21;100699.03;;;15.87;75.28
57600;BME280;43426;43.594;24.334;2024-02-26T12:13:47;100694.22;;;16.15;75.07
57600;BME280;43426;43.594;24.334;2024-02-26T12:16:21;100686.91;;;16.36;74.05
57600;BME280;43426;43.594;24.334;2024-02-26T12:18:59;100690.59;;;16.95;71.13
57600;BME280;43426;43.594;24.334;2024-02-26T12:21:25;100687.63;;;17.04;69.69
57600;BME280;43426;43.594;24.334;2024-02-26T12:23:50;100695.97;;;17.15;70.04
57600;BME280;43426;43.594;24.334;2024-02-26T12:26:16;100689.31;;;16.84;69.22
57600;BME280;43426;43.594;24.334;2024-02-26T12:28:41;100702.81;;;16.52;71.19
57600;BME280;43426;43.594;24.334;2024-02-26T12:31:07;100694.25;;;16.29;71.96
57600;BME280;43426;43.594;24.334;2024-02-26T12:33:32;100692.34;;;16.43;72.57
57600;BME280;43426;43.594;24.334;2024-02-26T12:35:57;100692.34;;;16.03;72.61
57600;BME280;43426;43.594;24.334;2024-02-26T12:38:23;100687.75;;;15.90;74.73